Time;durP1;ratioP1;P1;durP2;ratioP2;P2;SDS_P1;SDS_P2;PMS_P1;PMS_P2;Temp;Humidity;BMP_temperature;BMP_pressure;BME280_temperature;BME280_humidity;BME280_pressure;Samples;Min_cycle;Max_cycle;Signal;HPM_P1;HPM_P2
2024/03/23 00:00:10;;;;;;;11.10;7.00;;;;;;;6.57;100.00;100122.83;108939;1254;74598;-57
2024/03/23 00:02:40;;;;;;;10.30;6.00;;;;;;;6.56;100.00;100118.23;108361;1254;67257;-58
2024/03/23 00:05:07;;;;;;;8.90;6.60;;;;;;;6.55;100.00;100112.19;105857;1260;71626;-56
2024/03/23 00:07:35;;;;;;;11.60;7.00;;;;;;;6.55;100.00;100109.33;107038;1256;60074;-54
2024/03/23 00:10:04;;;;;;;13.40;7.70;;;;;;;6.55;100.00;100105.75;105892;1255;61677;-58
2024/03/23 00:12:31;;;;;;;9.20;5.80;;;;;;;6.56;100.00;100106.09;105974;1266;75062;-54
2024/03/23 00:14:58;;;;;;;12.40;7.80;;;;;;;6.57;100.00;100101.27;105930;1253;66141;-55
2024/03/23 00:17:25;;;;;;;11.20;6.30;;;;;;;6.57;100.00;100101.27;105918;1256;72729;-55
2024/03/23 00:19:52;;;;;;;14.10;7.30;;;;;;;6.57;100.00;100100.90;105867;1259;62236;-57
2024/03/23 00:22:20;;;;;;;11.30;8.10;;;;;;;6.57;100.00;100100.02;105777;1254;61187;-55
2024/03/23 00:24:47;;;;;;;10.10;7.20;;;;;;;6.56;100.00;100097.17;105889;1259;72246;-56
2024/03/23 00:27:14;;;;;;;11.10;7.40;;;;;;;6.55;100.00;100090.07;105846;1259;68150;-54
2024/03/23 00:29:41;;;;;;;10.80;7.50;;;;;;;6.55;100.00;100090.62;105859;1254;73241;-59
2024/03/23 00:32:09;;;;;;;10.20;7.60;;;;;;;6.54;100.00;100084.42;105872;1264;61772;-56
2024/03/23 00:34:36;;;;;;;7.00;6.20;;;;;;;6.54;100.00;100081.23;105908;1253;62074;-55
2024/03/23 00:37:03;;;;;;;9.00;5.50;;;;;;;6.54;100.00;100076.92;105970;1256;74894;-56
2024/03/23 00:39:30;;;;;;;11.00;6.10;;;;;;;6.56;100.00;100076.50;105833;1275;65649;-54
2024/03/23 00:41:57;;;;;;;8.20;6.60;;;;;;;6.57;100.00;100074.33;105887;1259;72764;-57
2024/03/23 00:44:27;;;;;;;11.30;6.70;;;;;;;6.59;100.00;100071.96;105808;1258;61321;-54
2024/03/23 00:46:55;;;;;;;11.20;7.30;;;;;;;6.61;100.00;100076.55;106357;1255;61343;-54
2024/03/23 00:49:22;;;;;;;16.80;8.80;;;;;;;6.62;100.00;100074.05;105558;1260;264567;-57
2024/03/23 00:52:57;;;;;;;10.60;7.70;;;;;;;6.65;100.00;100117.61;102601;1298;601177;-55
2024/03/23 00:55:24;;;;;;;13.00;8.00;;;;;;;6.64;100.00;100114.61;105062;1273;60509;-58
2024/03/23 00:57:51;;;;;;;7.30;6.30;;;;;;;6.64;100.00;100105.88;104940;1269;59750;-56
2024/03/23 01:00:18;;;;;;;15.90;8.50;;;;;;;6.63;100.00;100100.04;104900;1273;74767;-55
2024/03/23 01:02:45;;;;;;;9.90;7.40;;;;;;;6.63;100.00;100092.73;105073;1272;65063;-55
2024/03/23 01:05:13;;;;;;;15.20;7.80;;;;;;;6.62;100.00;100082.96;104952;1276;72411;-55
2024/03/23 01:07:40;;;;;;;9.00;6.90;;;;;;;6.61;100.00;100080.12;105004;1269;195468;-55
2024/03/23 01:10:07;;;;;;;10.50;8.00;;;;;;;6.60;100.00;100073.90;105157;1269;60129;-56
2024/03/23 01:12:34;;;;;;;10.30;6.70;;;;;;;6.60;100.00;100071.06;105181;1264;73097;-57
2024/03/23 01:15:02;;;;;;;9.00;6.00;;;;;;;6.59;100.00;100069.46;105208;1277;65157;-55
2024/03/23 01:17:30;;;;;;;10.40;6.40;;;;;;;6.61;100.00;100070.69;105183;1269;73086;-59
2024/03/23 01:19:57;;;;;;;8.40;6.40;;;;;;;6.62;100.00;100062.28;105186;1269;60892;-58
2024/03/23 01:22:24;;;;;;;12.80;7.30;;;;;;;6.62;100.00;100065.82;105164;1280;60524;-56
2024/03/23 01:24:52;;;;;;;9.90;7.20;;;;;;;6.62;100.00;100061.19;105162;1269;73884;-54
2024/03/23 01:27:19;;;;;;;10.00;7.50;;;;;;;6.62;100.00;100058.16;105206;1270;67184;-56
2024/03/23 01:29:46;;;;;;;9.80;7.30;;;;;;;6.61;100.00;100053.19;105243;1269;71754;-58
2024/03/23 01:32:13;;;;;;;12.70;7.40;;;;;;;6.60;100.00;100052.14;105290;1271;60479;-57
2024/03/23 01:34:40;;;;;;;11.90;8.00;;;;;;;6.59;100.00;100049.50;105203;1272;60961;-56
2024/03/23 01:37:07;;;;;;;9.70;7.20;;;;;;;6.58;100.00;100047.55;105249;1267;72374;-55
2024/03/23 01:39:34;;;;;;;12.00;7.10;;;;;;;6.57;100.00;100045.81;105172;1270;66960;-54
2024/03/23 01:42:02;;;;;;;8.30;6.60;;;;;;;6.56;100.00;100040.65;105092;1269;72632;-57
2024/03/23 01:44:29;;;;;;;9.20;6.50;;;;;;;6.55;100.00;100041.23;105880;1267;60874;-56
2024/03/23 01:46:56;;;;;;;11.00;7.60;;;;;;;6.54;100.00;100036.80;105181;1266;60488;-54
2024/03/23 01:49:24;;;;;;;9.00;6.60;;;;;;;6.55;100.00;100033.41;105182;1269;73854;-55
2024/03/23 01:51:51;;;;;;;10.50;7.70;;;;;;;6.56;100.00;100035.67;105370;1269;66738;-54
2024/03/23 01:54:18;;;;;;;11.00;6.60;;;;;;;6.56;100.00;100033.16;105186;1267;72867;-55
2024/03/23 01:56:45;;;;;;;10.60;6.90;;;;;;;6.57;100.00;100031.34;105103;1283;60475;-56
2024/03/23 01:59:12;;;;;;;7.90;7.10;;;;;;;6.58;100.00;100026.34;105162;1282;60472;-55
2024/03/23 02:01:40;;;;;;;10.80;7.40;;;;;;;6.57;100.00;100026.20;105152;1269;73955;-56
2024/03/23 02:04:08;;;;;;;10.60;6.60;;;;;;;6.56;100.00;100020.86;105235;1269;65737;-54
2024/03/23 02:06:36;;;;;;;9.90;7.40;;;;;;;6.56;100.00;100019.44;105143;1272;72945;-56
2024/03/23 02:09:03;;;;;;;8.90;7.50;;;;;;;6.54;100.00;100016.30;105051;1270;60548;-56
2024/03/23 02:11:30;;;;;;;8.90;6.00;;;;;;;6.53;100.00;100013.67;108316;1267;60006;-55
2024/03/23 02:13:58;;;;;;;8.00;5.80;;;;;;;6.51;100.00;100012.10;105965;1269;73526;-54
2024/03/23 02:16:25;;;;;;;11.40;6.10;;;;;;;6.51;100.00;100010.69;105106;1272;67306;-56
2024/03/23 02:18:52;;;;;;;5.90;5.40;;;;;;;6.50;100.00;100004.99;105187;1272;71122;-58
2024/03/23 02:21:19;;;;;;;7.20;5.20;;;;;;;6.49;100.00;100000.91;105140;1282;60717;-54
2024/03/23 02:23:46;;;;;;;9.50;6.40;;;;;;;6.50;100.00;99998.22;105126;1269;60610;-55
2024/03/23 02:26:15;;;;;;;8.80;5.50;;;;;;;6.51;100.00;99996.24;105146;1270;72600;-54
2024/03/23 02:28:42;;;;;;;7.90;6.10;;;;;;;6.52;100.00;99996.94;108335;1269;67762;-53
2024/03/23 02:31:10;;;;;;;6.90;6.30;;;;;;;6.53;100.00;99990.66;108217;1266;73702;-54
2024/03/23 02:33:38;;;;;;;7.50;6.80;;;;;;;6.54;100.00;99989.39;107288;1269;60489;-55
2024/03/23 02:36:05;;;;;;;10.20;6.40;;;;;;;6.54;100.00;99984.41;108304;1267;59215;-56
2024/03/23 02:38:32;;;;;;;7.90;5.90;;;;;;;6.52;100.00;99984.44;109170;1254;73295;-55
2024/03/23 02:41:03;;;;;;;7.90;6.80;;;;;;;6.50;100.00;99980.05;109110;1254;67131;-55
2024/03/23 02:43:31;;;;;;;9.00;7.20;;;;;;;6.48;100.00;99975.28;109017;1257;70545;-58
2024/03/23 02:45:58;;;;;;;13.40;8.50;;;;;;;6.45;100.00;99971.82;109095;1259;58991;-58
2024/03/23 02:48:25;;;;;;;8.50;6.10;;;;;;;6.43;100.00;99972.39;109096;1254;61039;-54
2024/03/23 02:50:54;;;;;;;6.90;5.30;;;;;;;6.40;100.00;99966.22;108633;1256;73957;-54
2024/03/23 02:53:21;;;;;;;14.40;6.10;;;;;;;6.38;100.00;99961.27;105994;1260;67692;-55
2024/03/23 02:55:48;;;;;;;14.80;6.50;;;;;;;6.38;100.00;99962.19;105998;1254;71292;-56
2024/03/23 02:58:15;;;;;;;9.80;7.00;;;;;;;6.38;100.00;99956.34;105920;1255;60563;-55
2024/03/23 03:00:42;;;;;;;13.40;7.20;;;;;;;6.37;100.00;99956.17;106018;1254;60511;-55
2024/03/23 03:03:09;;;;;;;10.30;7.50;;;;;;;6.36;100.00;99953.34;106090;1257;72605;-54
2024/03/23 03:05:36;;;;;;;8.50;7.40;;;;;;;6.36;100.00;99950.33;105977;1259;66928;-55
2024/03/23 03:08:04;;;;;;;8.80;6.80;;;;;;;6.34;100.00;99946.63;106211;1257;73949;-58
2024/03/23 03:10:34;;;;;;;8.80;6.80;;;;;;;6.31;100.00;99940.27;107394;1256;59239;-54
2024/03/23 03:13:02;;;;;;;9.00;7.10;;;;;;;6.30;100.00;99935.71;105966;1254;60557;-58
2024/03/23 03:15:29;;;;;;;12.60;7.50;;;;;;;6.27;100.00;99934.70;105979;1267;74009;-54
2024/03/23 03:17:56;;;;;;;10.30;6.60;;;;;;;6.25;100.00;99931.55;105999;1260;66808;-56
2024/03/23 03:20:24;;;;;;;10.70;6.50;;;;;;;6.23;100.00;99929.80;105907;1254;72792;-55
2024/03/23 03:22:53;;;;;;;11.20;5.70;;;;;;;6.22;100.00;99925.90;105921;1260;60568;-55
2024/03/23 03:25:20;;;;;;;8.50;6.40;;;;;;;6.22;100.00;99925.73;106210;1254;60504;-55
2024/03/23 03:27:47;;;;;;;10.10;7.30;;;;;;;6.22;100.00;99921.28;105985;1259;72630;-58
2024/03/23 03:30:14;;;;;;;9.60;7.20;;;;;;;6.23;100.00;99922.88;107464;1256;68174;-56
2024/03/23 03:32:41;;;;;;;7.30;6.40;;;;;;;6.24;100.00;99918.39;105900;1260;72025;-55
2024/03/23 03:35:08;;;;;;;11.80;8.10;;;;;;;6.23;100.00;99913.59;105940;1252;60498;-56
2024/03/23 03:37:36;;;;;;;10.10;7.40;;;;;;;6.22;100.00;99911.84;105997;1254;60515;-57
2024/03/23 03:40:03;;;;;;;9.80;7.60;;;;;;;6.21;100.00;99908.35;105967;1267;74308;-57
2024/03/23 03:42:30;;;;;;;13.00;8.20;;;;;;;6.18;100.00;99908.94;106020;1261;67075;-55
2024/03/23 03:44:58;;;;;;;8.90;7.40;;;;;;;6.17;100.00;99909.15;105902;1258;72789;-55
2024/03/23 03:47:25;;;;;;;12.20;7.60;;;;;;;6.14;100.00;99909.57;105934;1254;60877;-56
2024/03/23 03:49:52;;;;;;;11.50;8.30;;;;;;;6.12;100.00;99908.22;105881;1260;60614;-54
2024/03/23 03:52:19;;;;;;;12.10;8.30;;;;;;;6.10;100.00;99904.54;105906;1258;74045;-57
2024/03/23 03:54:46;;;;;;;13.00;8.30;;;;;;;6.08;100.00;99904.76;105980;1260;67649;-56
2024/03/23 03:57:13;;;;;;;10.20;7.90;;;;;;;6.07;100.00;99899.25;105923;1266;72727;-55
2024/03/23 03:59:40;;;;;;;10.20;6.90;;;;;;;6.07;100.00;99898.01;105887;1259;60632;-58
2024/03/23 04:02:08;;;;;;;10.00;7.50;;;;;;;6.06;100.00;99893.05;105965;1267;60090;-56
2024/03/23 04:04:35;;;;;;;10.20;7.30;;;;;;;6.05;100.00;99893.42;105923;1267;75907;-56
2024/03/23 04:07:02;;;;;;;12.70;8.50;;;;;;;6.04;100.00;99894.54;106021;1257;66818;-55
2024/03/23 04:09:30;;;;;;;11.20;8.10;;;;;;;6.03;100.00;99896.71;105971;1264;73184;-55
2024/03/23 04:11:57;;;;;;;13.80;8.30;;;;;;;6.02;100.00;99893.86;106017;1262;60396;-54
2024/03/23 04:14:24;;;;;;;13.50;7.80;;;;;;;6.02;100.00;99892.47;105940;1271;60412;-54
2024/03/23 04:16:51;;;;;;;7.90;6.80;;;;;;;6.01;100.00;99888.20;105948;1254;72911;-54
2024/03/23 04:19:19;;;;;;;9.10;7.00;;;;;;;6.01;100.00;99878.77;105971;1260;66847;-57
2024/03/23 04:21:46;;;;;;;10.60;6.80;;;;;;;6.02;100.00;99878.02;106212;1260;72727;-54
2024/03/23 04:24:15;;;;;;;10.00;7.10;;;;;;;6.03;100.00;99876.20;106002;1255;60379;-53
2024/03/23 04:26:43;;;;;;;11.70;7.80;;;;;;;6.04;100.00;99875.45;105931;1267;60230;-54
2024/03/23 04:29:10;;;;;;;10.20;8.40;;;;;;;6.05;100.00;99870.63;106077;1260;72838;-54
2024/03/23 04:31:37;;;;;;;9.00;7.60;;;;;;;6.07;100.00;99870.58;106015;1259;66787;-57
2024/03/23 04:34:05;;;;;;;16.10;8.60;;;;;;;6.09;100.00;99868.39;106002;1261;71473;-57
2024/03/23 04:36:32;;;;;;;9.90;8.90;;;;;;;6.11;100.00;99869.93;106048;1254;60893;-56
2024/03/23 04:38:59;;;;;;;10.20;7.40;;;;;;;6.13;100.00;99870.95;105925;1258;60426;-56
2024/03/23 04:41:26;;;;;;;15.30;7.10;;;;;;;6.15;100.00;99871.95;105925;1254;74465;-58
2024/03/23 04:43:54;;;;;;;9.20;7.30;;;;;;;6.17;100.00;99872.23;105955;1255;66023;-58
2024/03/23 04:46:21;;;;;;;9.40;8.00;;;;;;;6.21;100.00;99870.70;105963;1263;71401;-57
2024/03/23 04:48:48;;;;;;;9.40;7.00;;;;;;;6.26;100.00;99869.50;106054;1255;60312;-58
2024/03/23 04:51:23;;;;;;;8.80;6.80;;;;;;;6.29;100.00;99862.64;106077;1259;60483;-56
2024/03/23 04:53:50;;;;;;;9.90;7.50;;;;;;;6.33;100.00;99860.75;106034;1264;73818;-55
2024/03/23 04:56:18;;;;;;;9.00;7.20;;;;;;;6.35;100.00;99853.90;106004;1258;68386;-55
2024/03/23 04:58:45;;;;;;;11.70;8.50;;;;;;;6.38;100.00;99855.44;105957;1261;70609;-56
2024/03/23 05:01:13;;;;;;;9.10;6.90;;;;;;;6.41;100.00;99859.08;105917;1261;61437;-55
2024/03/23 05:03:40;;;;;;;12.10;7.10;;;;;;;6.44;100.00;99852.77;106025;1255;62056;-56
2024/03/23 05:06:08;;;;;;;9.40;6.10;;;;;;;6.47;100.00;99847.47;105963;1257;74747;-57
2024/03/23 05:08:35;;;;;;;11.80;6.40;;;;;;;6.51;100.00;99850.21;105966;1264;67158;-57
2024/03/23 05:11:02;;;;;;;13.10;6.50;;;;;;;6.55;100.00;99843.13;106008;1257;72437;-56
2024/03/23 05:13:29;;;;;;;7.70;6.40;;;;;;;6.59;100.00;99848.72;105876;1261;61551;-56
2024/03/23 05:15:57;;;;;;;9.60;6.50;;;;;;;6.63;100.00;99846.81;105957;1258;61202;-56
2024/03/23 05:18:26;;;;;;;6.40;5.50;;;;;;;6.67;100.00;99840.64;105965;1267;74630;-56
2024/03/23 05:20:57;;;;;;;10.10;6.90;;;;;;;6.70;100.00;99841.24;108665;1253;66006;-56
2024/03/23 05:23:25;;;;;;;8.10;6.60;;;;;;;6.74;100.00;99841.11;109116;1254;70942;-57
2024/03/23 05:25:53;;;;;;;7.90;5.40;;;;;;;6.77;100.00;99834.08;106112;1261;61291;-56
2024/03/23 05:28:21;;;;;;;9.80;6.10;;;;;;;6.80;100.00;99838.23;108029;1254;61410;-55
2024/03/23 05:30:54;;;;;;;6.70;5.40;;;;;;;6.84;100.00;99839.02;108059;1254;73444;-56
2024/03/23 05:33:21;;;;;;;7.20;5.30;;;;;;;6.89;100.00;99839.59;105928;1273;65850;-56
2024/03/23 05:35:59;;;;;;;10.80;6.20;;;;;;;6.94;100.00;99836.58;106011;1254;72722;-56
2024/03/23 05:38:28;;;;;;;7.20;5.50;;;;;;;7.00;100.00;99836.36;108966;1253;60257;-57
2024/03/23 05:40:55;;;;;;;7.20;6.20;;;;;;;7.03;100.00;99836.80;109203;1254;60116;-57
2024/03/23 05:43:23;;;;;;;8.50;6.10;;;;;;;7.07;100.00;99833.25;108190;1254;73423;-57
2024/03/23 05:45:56;;;;;;;9.70;6.40;;;;;;;7.12;100.00;99835.28;105955;1254;67483;-57
2024/03/23 05:48:26;;;;;;;7.30;5.90;;;;;;;7.16;100.00;99837.98;109255;1253;71732;-57
2024/03/23 05:50:53;;;;;;;6.60;4.90;;;;;;;7.21;100.00;99836.58;109027;1253;59623;-57
2024/03/23 05:53:20;;;;;;;5.80;5.10;;;;;;;7.26;100.00;99841.21;109056;1254;59700;-57
2024/03/23 05:55:48;;;;;;;5.80;4.30;;;;;;;7.31;100.00;99842.13;108758;1253;74748;-57
2024/03/23 05:58:16;;;;;;;5.90;5.30;;;;;;;7.36;100.00;99840.18;106604;1254;65806;-57
2024/03/23 06:00:43;;;;;;;6.80;5.90;;;;;;;7.40;100.00;99840.20;106102;1260;71709;-56
2024/03/23 06:03:10;;;;;;;8.20;5.40;;;;;;;7.45;100.00;99839.69;106087;1260;61433;-56
2024/03/23 06:05:38;;;;;;;6.80;6.30;;;;;;;7.49;100.00;99844.52;106022;1254;61247;-57
2024/03/23 06:08:06;;;;;;;5.90;4.60;;;;;;;7.52;100.00;99842.45;107054;1255;74849;-58
2024/03/23 06:10:34;;;;;;;8.00;5.20;;;;;;;7.55;100.00;99840.77;106045;1257;67341;-60
2024/03/23 06:13:01;;;;;;;5.70;5.10;;;;;;;7.56;100.00;99834.30;105962;1260;71538;-57
2024/03/23 06:15:30;;;;;;;5.20;4.50;;;;;;;7.57;100.00;99834.26;106126;1254;61666;-55
2024/03/23 06:17:58;;;;;;;8.10;5.20;;;;;;;7.60;100.00;99837.36;106354;1257;61311;-56
2024/03/23 06:20:25;;;;;;;4.40;4.00;;;;;;;7.64;100.00;99837.62;105944;1257;73582;-55
2024/03/23 06:22:53;;;;;;;6.50;4.70;;;;;;;7.68;100.00;99841.92;106041;1254;66295;-56
2024/03/23 06:25:20;;;;;;;6.20;5.20;;;;;;;7.72;100.00;99840.90;106064;1256;72641;-57
2024/03/23 06:27:48;;;;;;;7.20;6.10;;;;;;;7.76;100.00;99842.17;106061;1254;61784;-57
2024/03/23 06:30:15;;;;;;;6.20;5.60;;;;;;;7.79;100.00;99843.48;106066;1254;61280;-56
2024/03/23 06:32:42;;;;;;;6.20;5.60;;;;;;;7.82;100.00;99841.61;106122;1254;74449;-57
2024/03/23 06:35:10;;;;;;;7.50;5.60;;;;;;;7.85;100.00;99842.92;106002;1257;66551;-57
2024/03/23 06:37:38;;;;;;;11.00;6.70;;;;;;;7.86;100.00;99841.08;106000;1270;71364;-57
2024/03/23 06:40:09;;;;;;;6.30;5.50;;;;;;;7.87;100.00;99844.43;106174;1260;61724;-57
2024/03/23 06:42:36;;;;;;;9.80;6.20;;;;;;;7.88;100.00;99841.38;107077;1254;62328;-56
2024/03/23 06:45:05;;;;;;;8.20;6.70;;;;;;;7.90;100.00;99846.47;106144;1270;73467;-56
2024/03/23 06:47:33;;;;;;;8.10;6.40;;;;;;;7.93;100.00;99841.91;106438;1254;66907;-58
2024/03/23 06:50:03;;;;;;;7.70;5.70;;;;;;;7.95;100.00;99843.98;105976;1254;71462;-57
2024/03/23 06:52:30;;;;;;;7.70;7.00;;;;;;;7.97;100.00;99844.27;105950;1258;61301;-56
2024/03/23 06:54:57;;;;;;;6.00;4.90;;;;;;;7.98;100.00;99842.42;105819;1254;61601;-57
2024/03/23 06:57:25;;;;;;;10.40;6.20;;;;;;;8.01;100.00;99839.65;105958;1260;74265;-55
2024/03/23 06:59:52;;;;;;;9.90;5.90;;;;;;;8.02;100.00;99835.86;105894;1254;67200;-57
2024/03/23 07:02:19;;;;;;;7.40;5.50;;;;;;;8.03;100.00;99828.67;106456;1259;73173;-56
2024/03/23 07:04:46;;;;;;;7.50;6.00;;;;;;;8.06;100.00;99824.30;106093;1257;61751;-56
2024/03/23 07:07:13;;;;;;;7.40;6.30;;;;;;;8.08;100.00;99827.05;105936;1254;62046;-57
2024/03/23 07:09:41;;;;;;;7.10;5.30;;;;;;;8.11;100.00;99822.84;105935;1254;74066;-57
2024/03/23 07:12:08;;;;;;;6.70;5.50;;;;;;;8.15;100.00;99823.79;105963;1268;67111;-57
2024/03/23 07:14:35;;;;;;;7.00;6.20;;;;;;;8.18;100.00;99824.02;106009;1254;72468;-58
2024/03/23 07:17:03;;;;;;;9.70;7.60;;;;;;;8.19;100.00;99820.38;106065;1267;61118;-56
2024/03/23 07:19:30;;;;;;;7.00;6.10;;;;;;;8.21;100.00;99819.25;105965;1260;61216;-56
2024/03/23 07:21:57;;;;;;;10.10;6.40;;;;;;;8.24;100.00;99819.69;106004;1257;73415;-57
2024/03/23 07:24:24;;;;;;;6.40;5.50;;;;;;;8.26;100.00;99819.58;106070;1254;64957;-57
2024/03/23 07:26:54;;;;;;;9.50;6.10;;;;;;;8.28;100.00;99818.79;106073;1254;73153;-57
2024/03/23 07:29:21;;;;;;;7.30;6.60;;;;;;;8.31;100.00;99814.77;106316;1254;61311;-57
2024/03/23 07:31:48;;;;;;;7.10;5.60;;;;;;;8.34;100.00;99815.36;106011;1261;61272;-57
2024/03/23 07:34:15;;;;;;;8.80;7.50;;;;;;;8.38;100.00;99815.23;106006;1253;74762;-58
2024/03/23 07:36:42;;;;;;;9.10;7.50;;;;;;;8.41;100.00;99819.61;106137;1257;65696;-57
2024/03/23 07:39:10;;;;;;;9.30;7.60;;;;;;;8.43;100.00;99818.96;106040;1260;71471;-55
2024/03/23 07:41:39;;;;;;;9.20;7.10;;;;;;;8.44;100.00;99816.41;106560;1254;61173;-59
2024/03/23 07:44:06;;;;;;;7.80;7.00;;;;;;;8.47;100.00;99816.32;106075;1254;61697;-57
2024/03/23 07:46:33;;;;;;;9.80;7.60;;;;;;;8.50;100.00;99818.52;106006;1257;73546;-58
2024/03/23 07:49:01;;;;;;;6.90;5.90;;;;;;;8.54;100.00;99819.43;106157;1254;69504;-56
2024/03/23 07:51:28;;;;;;;6.90;6.30;;;;;;;8.60;100.00;99821.54;106083;1256;72181;-57
2024/03/23 07:53:56;;;;;;;9.10;7.20;;;;;;;8.64;100.00;99820.64;106759;1254;61279;-57
2024/03/23 07:56:23;;;;;;;7.90;7.10;;;;;;;8.68;100.00;99814.75;106120;1254;61173;-56
2024/03/23 07:58:50;;;;;;;9.00;7.50;;;;;;;8.72;100.00;99811.20;106371;1259;73913;-56
2024/03/23 08:01:18;;;;;;;10.40;7.90;;;;;;;8.77;100.00;99812.25;105989;1253;67146;-58
2024/03/23 08:03:45;;;;;;;8.20;7.20;;;;;;;8.82;100.00;99807.61;106045;1257;72682;-58
2024/03/23 08:06:17;;;;;;;9.70;7.00;;;;;;;8.88;100.00;99807.90;106287;1257;61665;-58
2024/03/23 08:08:47;;;;;;;8.40;7.30;;;;;;;8.94;100.00;99807.80;106134;1253;61864;-59
2024/03/23 08:11:15;;;;;;;7.60;6.70;;;;;;;9.03;100.00;99809.58;109007;1253;76964;-57
2024/03/23 08:13:42;;;;;;;14.30;6.50;;;;;;;9.12;100.00;99814.39;109296;1253;67463;-58
2024/03/23 08:16:09;;;;;;;11.20;7.30;;;;;;;9.22;100.00;99808.78;109053;1254;72599;-59
2024/03/23 08:18:36;;;;;;;10.20;8.10;;;;;;;9.32;100.00;99807.14;109108;1253;60230;-57
2024/03/23 08:21:05;;;;;;;12.60;8.80;;;;;;;9.38;100.00;99802.23;109226;1253;58928;-59
2024/03/23 08:23:33;;;;;;;16.70;13.80;;;;;;;9.43;100.00;99803.64;109117;1252;74689;-58
2024/03/23 08:26:01;;;;;;;9.80;8.20;;;;;;;9.47;100.00;99805.20;109060;1253;67141;-59
2024/03/23 08:28:28;;;;;;;9.20;7.80;;;;;;;9.51;100.00;99798.27;109122;1254;71802;-58
2024/03/23 08:30:55;;;;;;;11.20;7.30;;;;;;;9.54;100.00;99796.48;108402;1259;61743;-58
2024/03/23 08:33:25;;;;;;;7.80;7.00;;;;;;;9.58;100.00;99798.31;109079;1254;59298;-59
2024/03/23 08:36:00;;;;;;;11.30;7.60;;;;;;;9.61;100.00;99793.14;109107;1253;74905;-57
2024/03/23 08:38:27;;;;;;;9.70;7.70;;;;;;;9.65;100.00;99791.55;109112;1254;67159;-56
2024/03/23 08:41:05;;;;;;;10.00;9.00;;;;;;;9.70;100.00;99786.29;109157;1254;71438;-60
2024/03/23 08:43:34;;;;;;;9.50;8.60;;;;;;;9.79;100.00;99792.54;109053;1253;60249;-59
2024/03/23 08:46:08;;;;;;;11.10;9.40;;;;;;;9.87;100.00;99788.22;109045;1254;59398;-58
2024/03/23 08:48:38;;;;;;;10.60;9.50;;;;;;;9.97;100.00;99782.06;109093;1253;75050;-57
2024/03/23 08:51:06;;;;;;;11.90;9.30;;;;;;;10.06;100.00;99784.50;109206;1253;67370;-58
2024/03/23 08:53:37;;;;;;;10.90;8.80;;;;;;;10.15;100.00;99782.11;109016;1254;72706;-57
2024/03/23 08:56:08;;;;;;;10.70;8.30;;;;;;;10.26;100.00;99786.81;108024;1254;61156;-59
2024/03/23 08:58:36;;;;;;;10.10;8.60;;;;;;;10.38;100.00;99785.02;106026;1256;62123;-57
2024/03/23 09:01:07;;;;;;;9.60;8.70;;;;;;;10.49;100.00;99773.02;105951;1254;73398;-58
2024/03/23 09:03:36;;;;;;;10.80;8.30;;;;;;;10.61;100.00;99772.06;106027;1257;65766;-57
2024/03/23 09:06:08;;;;;;;8.40;7.70;;;;;;;10.73;100.00;99775.60;106149;1256;71415;-57
2024/03/23 09:08:36;;;;;;;8.50;7.50;;;;;;;10.87;100.00;99775.30;106324;1261;62162;-58
2024/03/23 09:11:06;;;;;;;8.90;8.00;;;;;;;10.99;100.00;99779.71;106010;1257;62120;-59
2024/03/23 09:13:34;;;;;;;9.20;8.20;;;;;;;11.07;100.00;99775.73;106307;1260;76719;-59
2024/03/23 09:16:01;;;;;;;11.10;9.00;;;;;;;11.11;100.00;99772.98;105930;1254;65783;-57
2024/03/23 09:18:31;;;;;;;11.10;8.80;;;;;;;11.15;100.00;99770.64;105954;1254;72829;-59
2024/03/23 09:20:58;;;;;;;10.90;9.10;;;;;;;11.19;100.00;99767.40;105914;1257;61727;-58
2024/03/23 09:23:26;;;;;;;8.90;8.10;;;;;;;11.25;100.00;99762.44;105997;1252;62242;-58
2024/03/23 09:25:53;;;;;;;11.00;8.50;;;;;;;11.31;100.00;99758.49;106455;1256;75061;-60
2024/03/23 09:28:20;;;;;;;15.20;8.20;;;;;;;11.38;100.00;99759.40;106030;1257;65826;-57
2024/03/23 09:30:47;;;;;;;9.80;8.30;;;;;;;11.43;100.00;99763.29;106023;1256;72205;-58
2024/03/23 09:33:15;;;;;;;10.50;9.10;;;;;;;11.48;100.00;99763.07;105952;1261;61347;-58
2024/03/23 09:35:44;;;;;;;8.70;7.90;;;;;;;11.51;100.00;99761.61;105933;1255;61349;-59
2024/03/23 09:38:11;;;;;;;9.80;8.70;;;;;;;11.55;100.00;99761.97;106272;1254;73991;-58
2024/03/23 09:40:42;;;;;;;10.40;9.40;;;;;;;11.56;100.00;99756.31;106045;1254;65836;-59
2024/03/23 09:43:09;;;;;;;10.20;9.20;;;;;;;11.57;100.00;99757.20;105908;1253;74904;-58
2024/03/23 09:45:40;;;;;;;10.40;9.10;;;;;;;11.57;100.00;99751.73;105903;1254;62123;-58
2024/03/23 09:48:11;;;;;;;9.40;7.80;;;;;;;11.62;100.00;99750.10;106383;1259;61672;-58
2024/03/23 09:50:39;;;;;;;9.60;8.10;;;;;;;11.65;100.00;99749.36;105880;1254;74018;-59
2024/03/23 09:53:13;;;;;;;9.30;7.90;;;;;;;11.70;100.00;99752.67;105883;1254;66977;-58
2024/03/23 09:55:41;;;;;;;10.70;8.30;;;;;;;11.76;100.00;99749.73;106405;1256;73052;-59
2024/03/23 09:58:08;;;;;;;11.60;10.10;;;;;;;11.83;100.00;99750.45;106048;1262;61841;-58
2024/03/23 10:00:35;;;;;;;12.20;8.90;;;;;;;11.89;100.00;99744.73;105951;1257;61439;-58
2024/03/23 10:03:04;;;;;;;9.10;8.20;;;;;;;11.94;100.00;99744.80;105959;1254;74664;-58
2024/03/23 10:05:36;;;;;;;9.40;8.50;;;;;;;11.98;100.00;99740.09;106105;1258;66467;-58
2024/03/23 10:08:14;;;;;;;10.10;9.00;;;;;;;12.03;100.00;99746.29;106025;1258;71536;-58
2024/03/23 10:10:41;;;;;;;7.80;7.00;;;;;;;12.05;100.00;99738.79;105909;1258;61362;-58
2024/03/23 10:13:09;;;;;;;7.30;6.60;;;;;;;12.07;100.00;99735.83;106003;1263;61360;-58
2024/03/23 10:15:36;;;;;;;8.80;7.20;;;;;;;12.08;100.00;99729.77;105986;1257;73459;-58
2024/03/23 10:18:19;;;;;;;9.10;8.20;;;;;;;12.12;100.00;99734.80;106018;1257;66300;-58
2024/03/23 10:20:50;;;;;;;8.00;6.60;;;;;;;12.15;100.00;99734.50;106120;1253;71832;-58
2024/03/23 10:23:18;;;;;;;7.40;6.70;;;;;;;12.16;100.00;99732.65;105911;1254;62040;-59
2024/03/23 10:25:48;;;;;;;9.70;7.00;;;;;;;12.17;100.00;99726.62;105974;1257;61297;-59
2024/03/23 10:28:16;;;;;;;8.50;6.10;;;;;;;12.19;100.00;99724.02;106066;1257;74730;-58
2024/03/23 10:30:43;;;;;;;6.90;6.20;;;;;;;12.22;100.00;99722.39;106017;1257;67463;-58
2024/03/23 10:33:10;;;;;;;7.20;6.60;;;;;;;12.27;100.00;99723.75;105973;1259;73019;-58
2024/03/23 10:35:38;;;;;;;6.80;6.00;;;;;;;12.33;100.00;99719.45;106433;1253;61305;-58
2024/03/23 10:38:06;;;;;;;8.60;6.50;;;;;;;12.40;100.00;99723.55;107335;1253;62232;-58
2024/03/23 10:40:34;;;;;;;8.20;6.90;;;;;;;12.46;100.00;99720.10;106026;1259;73987;-58
2024/03/23 10:43:03;;;;;;;8.50;6.50;;;;;;;12.52;100.00;99718.88;105967;1254;66877;-59
2024/03/23 10:45:30;;;;;;;7.00;6.10;;;;;;;12.58;100.00;99717.14;106512;1253;72748;-56
2024/03/23 10:47:57;;;;;;;6.30;5.80;;;;;;;12.63;100.00;99713.05;106815;1257;61077;-58
2024/03/23 10:50:25;;;;;;;6.20;5.60;;;;;;;12.66;100.00;99706.21;106451;1254;61151;-57
2024/03/23 10:52:52;;;;;;;7.90;5.30;;;;;;;12.68;100.00;99702.80;105670;1253;73983;-59
2024/03/23 10:55:20;;;;;;;5.80;5.20;;;;;;;12.71;100.00;99698.38;105767;1259;65869;-57
2024/03/23 10:57:52;;;;;;;5.60;5.00;;;;;;;12.74;100.00;99699.41;106044;1256;71502;-58
2024/03/23 11:00:21;;;;;;;5.50;4.80;;;;;;;12.79;100.00;99699.69;105853;1254;62712;-58
2024/03/23 11:02:48;;;;;;;7.00;6.40;;;;;;;12.82;100.00;99695.90;105831;1253;61257;-58
2024/03/23 11:05:29;;;;;;;7.60;6.90;;;;;;;12.87;100.00;99691.27;105938;1258;73459;-59
2024/03/23 11:07:56;;;;;;;6.20;5.40;;;;;;;12.92;100.00;99686.18;105836;1259;67874;-59
2024/03/23 11:10:30;;;;;;;5.70;5.20;;;;;;;12.94;100.00;99687.64;106001;1256;70776;-59
2024/03/23 11:12:58;;;;;;;6.00;5.00;;;;;;;12.98;100.00;99683.81;109082;1252;59195;-59
2024/03/23 11:15:25;;;;;;;6.60;6.00;;;;;;;13.04;100.00;99684.17;109035;1253;60063;-59
2024/03/23 11:18:07;;;;;;;6.50;5.90;;;;;;;13.10;100.00;99682.91;108933;1253;74909;-58
2024/03/23 11:20:35;;;;;;;6.00;5.50;;;;;;;13.15;100.00;99684.23;108982;1254;66919;-58
2024/03/23 11:23:02;;;;;;;6.30;5.70;;;;;;;13.17;100.00;99676.40;109123;1253;70615;-58